This is the latest recevied weather packets stored in our database for station/object OE6ATD-13. If no packets are shown the sender has not sent any weather packets the latest 10 day(s).
| Time | Temp. | Humidity | Pressure | Rain* | Wind** | Luminosity | Snow |
|---|---|---|---|---|---|---|---|
| 1788377435 | 18.89° C | 81% | 1020.1 hPa | 0 mm | - | 0 W/m² | - |
| 1788376817 | 18.89° C | 81% | 1020.1 hPa | 0 mm | - | 0 W/m² | - |
| 1788376229 | 18.89° C | 80% | 1019.9 hPa | 0 mm | - | 0 W/m² | - |
| 1788375624 | 18.89° C | 80% | 1020 hPa | 0 mm | - | 0 W/m² | - |
| 1788375020 | 19.44° C | 79% | 1020 hPa | 0 mm | - | 0 W/m² | - |
| 1788374416 | 20° C | 79% | 1019.9 hPa | 0 mm | - | 0 W/m² | - |
| 1788373827 | 20° C | 78% | 1019.8 hPa | 0 mm | - | 0 W/m² | - |
| 1788373223 | 20.56° C | 75% | 1019.7 hPa | 0 mm | - | 0 W/m² | - |
| 1788372619 | 20.56° C | 79% | 1019.3 hPa | 0 mm | - | 0 W/m² | - |
| 1788372029 | 20.56° C | 77% | 1019.1 hPa | 0 mm | - | 0 W/m² | - |
| 1788371425 | 21.11° C | 74% | 1018.9 hPa | 0 mm | - | 0 W/m² | - |
| 1788370821 | 21.67° C | 74% | 1018.9 hPa | 0 mm | - | 0 W/m² | - |
| 1788370217 | 21.67° C | 74% | 1018.9 hPa | 0 mm | - | 4 W/m² | - |
| 1788369627 | 21.67° C | 74% | 1018.8 hPa | 0 mm | - | 8 W/m² | - |
| 1788369023 | 22.22° C | 72% | 1018.9 hPa | 0 mm | - | 18 W/m² | - |
| 1788368419 | 22.78° C | 71% | 1018.9 hPa | 0 mm | - | 35 W/m² | - |
| 1788367830 | 23.89° C | 69% | 1018.9 hPa | 0 mm | - | 49 W/m² | - |
| 1788367226 | 25.56° C | 60% | 1018.9 hPa | 0 mm | - | 60 W/m² | - |
| 1788366621 | 27.22° C | 53% | 1018.9 hPa | 0 mm | - | 76 W/m² | - |
| 1788366017 | 27.22° C | 52% | 1018.7 hPa | 0 mm | - | 73 W/m² | - |
| 1788365428 | 26.67° C | 51% | 1018.9 hPa | 0 mm | - | 63 W/m² | - |
| 1788364824 | 26.67° C | 51% | 1018.7 hPa | 0 mm | - | 55 W/m² | - |
| 1788364220 | 26.67° C | 50% | 1018.8 hPa | 0 mm | - | 71 W/m² | - |
| 1788363615 | 27.22° C | 50% | 1018.7 hPa | 0 mm | - | 108 W/m² | - |
| 1788363026 | 27.22° C | 48% | 1018.7 hPa | 0 mm | - | 125 W/m² | - |
* Rain latest hour (hover to see other rain measurements)
** Current wind speed in m/s (hover to see current wind gust speed)